createdAt,value
2018-03-16T00:01:26.925Z,99030.40
2018-03-16T00:03:54.388Z,99035.36
2018-03-16T00:06:21.833Z,99025.58
2018-03-16T00:08:49.270Z,99026.23
2018-03-16T00:11:16.753Z,99025.86
2018-03-16T00:13:44.224Z,99028.14
2018-03-16T00:16:11.670Z,99030.33
2018-03-16T00:18:39.178Z,99023.89
2018-03-16T00:21:06.687Z,99025.30
2018-03-16T00:23:34.200Z,99023.72
2018-03-16T00:26:01.699Z,99030.05
2018-03-16T00:28:29.181Z,99020.85
2018-03-16T00:30:56.665Z,99028.23
2018-03-16T00:33:24.147Z,99019.66
2018-03-16T00:35:51.651Z,99030.71
2018-03-16T00:38:19.087Z,99029.86
2018-03-16T00:40:46.554Z,99030.41
2018-03-16T00:43:13.995Z,99020.03
2018-03-16T00:45:41.507Z,99019.47
2018-03-16T00:48:08.966Z,99023.55
2018-03-16T00:50:36.409Z,99026.56
2018-03-16T00:53:03.907Z,99028.43
2018-03-16T00:55:31.413Z,99018.92
2018-03-16T00:57:58.881Z,99023.55
2018-03-16T01:00:26.411Z,99024.36
2018-03-16T01:02:53.843Z,99035.41
2018-03-16T01:05:21.339Z,99027.22
2018-03-16T01:07:48.805Z,99024.34
2018-03-16T01:10:16.472Z,99028.78
2018-03-16T01:12:44.233Z,99018.92
2018-03-16T01:15:11.697Z,99021.47
2018-03-16T01:17:39.180Z,99021.38
2018-03-16T01:20:06.628Z,99010.02
2018-03-16T01:22:34.077Z,99006.41
2018-03-16T01:25:01.532Z,99004.01
2018-03-16T01:27:28.990Z,99007.81
2018-03-16T01:29:56.439Z,99008.78
2018-03-16T01:32:23.927Z,99006.92
2018-03-16T01:34:51.399Z,99004.83
2018-03-16T01:37:18.899Z,99006.15
2018-03-16T01:39:46.372Z,99007.72
2018-03-16T01:42:13.836Z,99012.99
2018-03-16T01:44:41.260Z,99008.95
2018-03-16T01:47:08.723Z,99003.84
2018-03-16T01:49:36.182Z,99008.34
2018-03-16T01:52:03.671Z,99010.44
2018-03-16T01:54:31.162Z,99004.59
2018-03-16T01:56:58.634Z,99005.56
2018-03-16T01:59:26.080Z,99002.25
2018-03-16T02:01:53.625Z,98996.86
2018-03-16T02:04:21.058Z,98991.28
2018-03-16T02:06:48.561Z,98992.46
2018-03-16T02:09:16.074Z,98989.42
2018-03-16T02:11:43.545Z,98989.25
2018-03-16T02:14:11.003Z,98973.85
2018-03-16T02:16:38.476Z,98988.22
2018-03-16T02:19:05.961Z,98983.45
2018-03-16T02:21:33.469Z,98981.06
2018-03-16T02:24:00.943Z,98979.29
2018-03-16T02:26:28.421Z,98985.47
2018-03-16T02:28:55.898Z,98987.19
2018-03-16T02:31:23.363Z,98986.95
2018-03-16T02:33:50.867Z,98982.70
2018-03-16T02:36:18.384Z,98985.07
2018-03-16T02:38:45.906Z,98983.41
2018-03-16T02:41:13.367Z,98983.80
2018-03-16T02:43:40.847Z,98982.86
2018-03-16T02:46:08.300Z,98977.45
2018-03-16T02:48:35.776Z,98984.18
2018-03-16T02:51:03.241Z,98989.52
2018-03-16T02:53:30.745Z,98985.02
2018-03-16T02:55:58.207Z,98986.63
2018-03-16T02:58:25.651Z,98984.70
2018-03-16T03:00:53.159Z,98993.45
2018-03-16T03:03:20.604Z,98990.50
2018-03-16T03:05:48.119Z,98992.34
2018-03-16T03:08:15.579Z,98984.18
2018-03-16T03:10:43.017Z,98986.79
2018-03-16T03:13:10.493Z,98976.70
2018-03-16T03:15:37.955Z,98977.11
2018-03-16T03:18:05.412Z,98983.67
2018-03-16T03:20:32.867Z,98983.80
2018-03-16T03:23:00.347Z,98989.64
2018-03-16T03:25:27.837Z,98989.76
2018-03-16T03:27:55.295Z,98983.89
2018-03-16T03:30:22.803Z,98988.56
2018-03-16T03:32:50.272Z,98990.19
2018-03-16T03:35:17.714Z,98986.35
2018-03-16T03:37:45.269Z,98988.70
2018-03-16T03:40:12.712Z,98991.67
2018-03-16T03:42:40.175Z,98990.06
2018-03-16T03:45:07.653Z,98986.26
2018-03-16T03:47:35.100Z,98988.63
2018-03-16T03:50:02.549Z,98990.95
2018-03-16T03:52:29.993Z,98988.09
2018-03-16T03:54:57.448Z,98995.55
2018-03-16T03:57:24.901Z,98984.70
2018-03-16T03:59:52.350Z,98982.70
2018-03-16T04:02:19.796Z,98990.84
2018-03-16T04:04:47.248Z,98992.19
2018-03-16T04:07:14.736Z,98985.59
2018-03-16T04:09:42.177Z,98982.73
2018-03-16T04:12:09.725Z,98980.80
2018-03-16T04:14:37.222Z,98990.19
2018-03-16T04:17:04.680Z,98984.05
2018-03-16T04:19:32.168Z,98980.24
2018-03-16T04:21:59.607Z,98984.17
2018-03-16T04:24:27.054Z,98979.25
2018-03-16T04:26:54.530Z,98980.70
2018-03-16T04:29:21.984Z,98986.00
2018-03-16T04:31:49.456Z,98988.23
2018-03-16T04:34:17.563Z,98993.39
2018-03-16T04:36:45.008Z,98987.44
2018-03-16T04:39:12.452Z,98983.36
2018-03-16T04:41:40.123Z,98982.17
2018-03-16T04:44:07.670Z,98984.55
2018-03-16T04:46:35.125Z,98984.17
2018-03-16T04:49:02.593Z,98989.44
2018-03-16T04:51:30.077Z,98982.23
2018-03-16T04:53:57.560Z,98988.85
2018-03-16T04:56:25.103Z,98977.92
2018-03-16T04:58:52.548Z,98983.31
2018-03-16T05:01:20.032Z,98986.73
2018-03-16T05:03:47.490Z,98985.30
2018-03-16T05:06:14.926Z,98987.37
2018-03-16T05:08:42.441Z,98990.73
2018-03-16T05:11:09.886Z,98992.05
2018-03-16T05:13:37.400Z,98995.45
2018-03-16T05:16:04.900Z,99002.04
2018-03-16T05:18:32.378Z,99000.27
2018-03-16T05:20:59.856Z,99004.88
2018-03-16T05:23:27.304Z,98997.14
2018-03-16T05:25:54.772Z,98999.11
2018-03-16T05:28:22.216Z,99003.84
2018-03-16T05:30:49.674Z,98990.66
2018-03-16T05:33:17.146Z,98991.97
2018-03-16T05:35:44.608Z,98998.83
2018-03-16T05:38:12.331Z,98993.69
2018-03-16T05:40:39.775Z,99000.38
2018-03-16T05:43:07.246Z,99000.19
2018-03-16T05:45:34.758Z,99003.80
2018-03-16T05:48:02.232Z,99006.94
2018-03-16T05:50:29.684Z,99010.80
2018-03-16T05:52:57.214Z,99008.88
2018-03-16T05:55:24.686Z,99012.97
2018-03-16T05:57:52.139Z,99010.98
2018-03-16T06:00:19.618Z,99015.23
2018-03-16T06:02:47.069Z,99006.41
2018-03-16T06:05:14.522Z,99010.06
2018-03-16T06:07:41.994Z,98997.81
2018-03-16T06:10:09.418Z,99000.07
2018-03-16T06:12:36.863Z,99002.84
2018-03-16T06:15:04.349Z,98996.53
2018-03-16T06:17:31.834Z,98999.32
2018-03-16T06:19:59.318Z,98999.56
2018-03-16T06:22:26.794Z,99006.02
2018-03-16T06:24:54.254Z,99012.11
2018-03-16T06:27:21.720Z,99007.38
2018-03-16T06:29:49.223Z,99024.00
2018-03-16T06:32:16.671Z,99011.11
2018-03-16T06:34:44.211Z,99008.00
2018-03-16T06:37:11.640Z,99010.89
2018-03-16T06:39:39.113Z,99013.87
2018-03-16T06:42:06.588Z,99022.84
2018-03-16T06:44:34.170Z,99018.77
2018-03-16T06:47:01.570Z,99024.41
2018-03-16T06:49:29.125Z,99026.93
2018-03-16T06:51:56.651Z,99026.67
2018-03-16T06:54:24.158Z,99026.81
2018-03-16T06:56:51.698Z,99032.44
2018-03-16T06:59:19.166Z,99033.40
2018-03-16T07:01:46.623Z,99029.22
2018-03-16T07:04:14.172Z,99040.64
2018-03-16T07:06:41.624Z,99037.38
2018-03-16T07:09:09.986Z,99042.38
2018-03-16T07:11:37.430Z,99040.56
2018-03-16T07:14:04.950Z,99046.77
2018-03-16T07:16:32.894Z,99049.41
2018-03-16T07:19:01.290Z,99052.67
2018-03-16T07:21:28.838Z,99053.44
2018-03-16T07:23:56.280Z,99064.17
2018-03-16T07:26:23.796Z,99061.05
2018-03-16T07:28:51.488Z,99061.16
2018-03-16T07:31:18.931Z,99067.31
2018-03-16T07:33:46.467Z,99064.96
2018-03-16T07:36:13.950Z,99071.18
2018-03-16T07:38:41.422Z,99062.50
2018-03-16T07:41:08.908Z,99066.86
2018-03-16T07:43:41.368Z,99064.66
2018-03-16T07:46:14.563Z,99069.80
2018-03-16T07:48:42.102Z,99063.21
2018-03-16T07:51:09.600Z,99068.50
2018-03-16T07:53:37.081Z,99069.09
2018-03-16T07:56:04.605Z,99073.45
2018-03-16T07:58:32.078Z,99077.26
2018-03-16T08:00:59.569Z,99078.74
2018-03-16T08:03:27.086Z,99079.40
2018-03-16T08:05:54.614Z,99084.92
2018-03-16T08:08:22.106Z,99086.64
2018-03-16T08:10:50.778Z,99089.50
2018-03-16T08:13:18.395Z,99090.94
2018-03-16T08:15:45.910Z,99094.37
2018-03-16T08:18:13.376Z,99094.66
2018-03-16T08:20:40.903Z,99088.88
2018-03-16T08:23:08.373Z,99095.05
2018-03-16T08:25:35.883Z,99098.62
2018-03-16T08:28:03.436Z,99098.36
2018-03-16T08:30:30.904Z,99101.78
2018-03-16T08:32:58.412Z,99099.97
2018-03-16T08:35:25.908Z,99109.03
2018-03-16T08:37:53.411Z,99108.77
2018-03-16T08:40:20.900Z,99113.11
2018-03-16T08:42:48.336Z,99105.25
2018-03-16T08:45:15.845Z,99103.69
2018-03-16T08:47:43.417Z,99104.88
2018-03-16T08:50:10.937Z,99100.95
2018-03-16T08:52:38.456Z,99103.98
2018-03-16T08:55:05.964Z,99103.59
2018-03-16T08:57:33.433Z,99103.32
2018-03-16T09:00:00.898Z,99109.25
2018-03-16T09:02:28.364Z,99104.53
2018-03-16T09:04:55.808Z,99097.56
2018-03-16T09:07:23.277Z,99098.34
2018-03-16T09:09:50.730Z,99097.70
2018-03-16T09:12:18.199Z,99109.11
2018-03-16T09:14:45.657Z,99107.16
2018-03-16T09:17:13.102Z,99108.84
2018-03-16T09:19:40.838Z,99113.72
2018-03-16T09:22:08.314Z,99117.12
2018-03-16T09:24:35.781Z,99113.45
2018-03-16T09:27:03.326Z,99120.52
2018-03-16T09:29:30.795Z,99116.34
2018-03-16T09:31:58.289Z,99120.50
2018-03-16T09:34:25.779Z,99114.88
2018-03-16T09:36:53.214Z,99115.80
2018-03-16T09:39:20.771Z,99120.12
2018-03-16T09:41:48.252Z,99120.77
2018-03-16T09:44:15.745Z,99117.91
2018-03-16T09:46:43.205Z,99114.20
2018-03-16T09:49:10.656Z,99124.05
2018-03-16T09:51:38.162Z,99116.30
2018-03-16T09:54:05.608Z,99116.95
2018-03-16T09:56:33.084Z,99120.60
2018-03-16T09:59:00.620Z,99124.66
2018-03-16T10:01:29.946Z,99116.53
2018-03-16T10:03:57.542Z,99120.08
2018-03-16T10:06:25.127Z,99124.41
2018-03-16T10:08:52.585Z,99125.83
2018-03-16T10:11:20.090Z,99134.34
2018-03-16T10:13:52.499Z,99135.92
2018-03-16T10:16:19.999Z,99136.34
2018-03-16T10:18:48.304Z,99127.25
2018-03-16T10:21:15.761Z,99135.00
2018-03-16T10:23:43.270Z,99141.03
2018-03-16T10:26:10.741Z,99137.75
2018-03-16T10:28:38.317Z,99130.27
2018-03-16T10:31:06.597Z,99138.95
2018-03-16T10:33:34.059Z,99139.59
2018-03-16T10:36:01.501Z,99139.46
2018-03-16T10:38:29.010Z,99142.76
2018-03-16T10:40:56.483Z,99133.94
2018-03-16T10:43:23.955Z,99133.28
2018-03-16T10:45:51.437Z,99134.98
2018-03-16T10:48:18.893Z,99134.85
2018-03-16T10:50:46.624Z,99144.39
2018-03-16T10:53:14.190Z,99139.83
2018-03-16T10:55:41.531Z,99139.41
2018-03-16T10:58:09.029Z,99150.14
2018-03-16T11:00:41.949Z,99149.51
2018-03-16T11:03:15.380Z,99148.56
2018-03-16T11:05:48.632Z,99150.77
2018-03-16T11:11:06.037Z,99152.31
2018-03-16T11:13:33.517Z,99165.19
2018-03-16T11:16:01.066Z,99158.98
2018-03-16T11:18:28.598Z,99162.70
2018-03-16T11:20:56.129Z,99166.87
2018-03-16T11:23:23.556Z,99164.91
2018-03-16T11:25:51.958Z,99161.45
2018-03-16T11:28:19.439Z,99173.61
2018-03-16T11:30:46.891Z,99168.10
2018-03-16T11:33:14.416Z,99171.39
2018-03-16T11:35:41.885Z,99175.70
2018-03-16T11:38:09.349Z,99174.73
2018-03-16T11:40:36.859Z,99175.69
2018-03-16T11:43:04.349Z,99176.06
2018-03-16T11:45:31.905Z,99183.55
2018-03-16T11:47:59.395Z,99176.22
2018-03-16T11:50:26.847Z,99178.87
2018-03-16T11:52:54.318Z,99179.27
2018-03-16T11:55:21.809Z,99179.56
2018-03-16T11:57:49.273Z,99180.75
2018-03-16T12:00:16.718Z,99188.09
2018-03-16T12:02:44.211Z,99179.70
2018-03-16T12:05:11.665Z,99184.79
2018-03-16T12:07:39.163Z,99178.61
2018-03-16T12:10:06.673Z,99185.72
2018-03-16T12:12:34.150Z,99180.73
2018-03-16T12:15:01.625Z,99178.20
2018-03-16T12:17:30.219Z,99180.53
2018-03-16T12:19:57.953Z,99183.42
2018-03-16T12:22:25.440Z,99176.84
2018-03-16T12:24:53.559Z,99184.17
2018-03-16T12:27:21.127Z,99182.75
2018-03-16T12:29:48.594Z,99187.06
2018-03-16T12:32:16.055Z,99182.58
2018-03-16T12:34:43.525Z,99177.10
2018-03-16T12:37:10.979Z,99179.34
2018-03-16T12:39:38.441Z,99180.21
2018-03-16T12:42:05.873Z,99182.05
2018-03-16T12:44:33.342Z,99182.72
2018-03-16T12:47:00.868Z,99182.95
2018-03-16T12:49:28.344Z,99181.78
2018-03-16T12:51:55.812Z,99187.33
2018-03-16T12:54:23.287Z,99187.97
2018-03-16T12:56:50.744Z,99181.83
2018-03-16T12:59:18.263Z,99192.55
2018-03-16T13:01:45.752Z,99179.92
2018-03-16T13:04:13.215Z,99187.10
2018-03-16T13:06:40.694Z,99187.75
2018-03-16T13:09:08.146Z,99199.69
2018-03-16T13:11:35.638Z,99191.61
2018-03-16T13:14:03.127Z,99196.03
2018-03-16T13:16:30.587Z,99212.12
2018-03-16T13:18:58.080Z,99205.55
2018-03-16T13:21:25.580Z,99211.27
2018-03-16T13:23:53.085Z,99209.42
2018-03-16T13:26:20.611Z,99219.86
2018-03-16T13:28:48.152Z,99220.75
2018-03-16T13:31:15.613Z,99221.70
2018-03-16T13:33:43.069Z,99226.52
2018-03-16T13:36:10.511Z,99223.24
2018-03-16T13:38:37.974Z,99221.74
2018-03-16T13:41:05.436Z,99231.40
2018-03-16T13:43:32.972Z,99226.73
2018-03-16T13:46:00.418Z,99240.39
2018-03-16T13:48:27.898Z,99249.45
2018-03-16T13:50:55.419Z,99246.84
2018-03-16T13:53:22.873Z,99240.73
2018-03-16T13:55:50.330Z,99238.76
2018-03-16T13:58:17.815Z,99237.74
2018-03-16T14:00:45.269Z,99243.61
2018-03-16T14:03:12.767Z,99237.67
2018-03-16T14:05:40.241Z,99241.38
2018-03-16T14:08:07.713Z,99246.25
2018-03-16T14:10:35.382Z,99244.28
2018-03-16T14:13:02.865Z,99248.74
2018-03-16T14:15:30.324Z,99248.67
2018-03-16T14:17:57.802Z,99254.77
2018-03-16T14:20:25.504Z,99257.75
2018-03-16T14:22:52.965Z,99252.69
2018-03-16T14:25:20.469Z,99261.11
2018-03-16T14:27:47.925Z,99260.98
2018-03-16T14:30:15.424Z,99257.84
2018-03-16T14:32:42.908Z,99265.83
2018-03-16T14:35:10.402Z,99267.52
2018-03-16T14:37:37.878Z,99274.20
2018-03-16T14:40:05.518Z,99282.57
2018-03-16T14:42:33.015Z,99280.20
2018-03-16T14:45:01.336Z,99275.47
2018-03-16T14:47:29.387Z,99281.08
2018-03-16T14:49:56.924Z,99281.77
2018-03-16T14:52:24.448Z,99278.23
2018-03-16T14:54:52.041Z,99278.27
2018-03-16T14:57:19.556Z,99286.75
2018-03-16T14:59:47.076Z,99293.24
2018-03-16T15:02:14.565Z,99294.25
2018-03-16T15:04:42.106Z,99300.69
2018-03-16T15:07:09.558Z,99306.63
2018-03-16T15:09:37.040Z,99312.75
2018-03-16T15:12:04.511Z,99307.23
2018-03-16T15:14:32.017Z,99317.20
2018-03-16T15:16:59.554Z,99324.00
2018-03-16T15:19:27.018Z,99322.91
2018-03-16T15:21:54.512Z,99320.52
2018-03-16T15:24:22.018Z,99329.63
2018-03-16T15:26:49.524Z,99328.38
2018-03-16T15:29:17.048Z,99328.25
2018-03-16T15:31:45.454Z,99329.13
2018-03-16T15:34:12.952Z,99328.53
2018-03-16T15:36:40.440Z,99328.44
2018-03-16T15:39:07.946Z,99335.81
2018-03-16T15:41:35.418Z,99347.34
2018-03-16T15:44:02.880Z,99341.58
2018-03-16T15:46:30.349Z,99347.56
2018-03-16T15:48:57.818Z,99343.77
2018-03-16T15:51:25.265Z,99347.01
2018-03-16T15:53:52.764Z,99358.44
2018-03-16T15:56:20.256Z,99362.90
2018-03-16T15:58:47.732Z,99363.30
2018-03-16T16:01:15.220Z,99361.97
2018-03-16T16:03:42.665Z,99364.70
2018-03-16T16:06:10.176Z,99364.70
2018-03-16T16:08:37.710Z,99369.72
2018-03-16T16:11:05.158Z,99373.34
2018-03-16T16:13:32.657Z,99375.08
2018-03-16T16:16:00.158Z,99378.69
2018-03-16T16:18:27.940Z,99377.88
2018-03-16T16:20:55.413Z,99380.08
2018-03-16T16:23:22.922Z,99386.10
2018-03-16T16:25:50.398Z,99385.27
2018-03-16T16:28:17.852Z,99391.19
2018-03-16T16:30:45.308Z,99393.28
2018-03-16T16:33:13.562Z,99399.52
2018-03-16T16:35:41.076Z,99398.42
2018-03-16T16:38:09.484Z,99402.43
2018-03-16T16:40:36.989Z,99408.10
2018-03-16T16:43:04.600Z,99411.42
2018-03-16T16:45:32.194Z,99417.92
2018-03-16T16:47:59.667Z,99418.66
2018-03-16T16:50:27.154Z,99419.55
2018-03-16T16:52:54.610Z,99415.88
2018-03-16T16:55:22.094Z,99425.28
2018-03-16T16:57:49.568Z,99430.06
2018-03-16T17:00:17.056Z,99440.48
2018-03-16T17:02:45.460Z,99437.21
2018-03-16T17:05:13.157Z,99444.19
2018-03-16T17:07:40.951Z,99445.98
2018-03-16T17:10:08.521Z,99456.28
2018-03-16T17:12:36.052Z,99452.66
2018-03-16T17:15:03.642Z,99458.05
2018-03-16T17:17:32.052Z,99457.55
2018-03-16T17:19:59.671Z,99456.58
2018-03-16T17:22:27.186Z,99471.27
2018-03-16T17:24:54.729Z,99474.86
2018-03-16T17:27:24.138Z,99477.44
2018-03-16T17:29:51.722Z,99482.53
2018-03-16T17:32:24.242Z,99490.37
2018-03-16T17:34:46.778Z,99492.25
2018-03-16T17:37:14.240Z,99495.10
2018-03-16T17:39:41.695Z,99494.70
2018-03-16T17:42:09.152Z,99496.09
2018-03-16T17:44:36.625Z,99507.41
2018-03-16T17:47:04.068Z,99508.88
2018-03-16T17:49:31.622Z,99508.09
2018-03-16T17:51:59.148Z,99509.40
2018-03-16T17:54:27.381Z,99520.67
2018-03-16T17:56:54.867Z,99516.88
2018-03-16T17:59:22.347Z,99513.53
2018-03-16T18:01:49.871Z,99521.86
2018-03-16T18:04:17.310Z,99522.39
2018-03-16T18:06:44.794Z,99523.70
2018-03-16T18:09:12.257Z,99528.37
2018-03-16T18:11:39.717Z,99531.91
2018-03-16T18:14:07.240Z,99532.08
2018-03-16T18:16:34.729Z,99532.98
2018-03-16T18:19:02.217Z,99538.33
2018-03-16T18:21:29.676Z,99537.91
2018-03-16T18:23:57.174Z,99540.69
2018-03-16T18:26:24.656Z,99545.63
2018-03-16T18:28:52.381Z,99547.74
2018-03-16T18:31:19.893Z,99555.02
2018-03-16T18:33:47.371Z,99557.75
2018-03-16T18:36:14.926Z,99550.80
2018-03-16T18:38:42.456Z,99555.03
2018-03-16T18:41:09.949Z,99561.69
2018-03-16T18:43:37.433Z,99562.09
2018-03-16T18:46:05.058Z,99566.72
2018-03-16T18:48:32.537Z,99566.01
2018-03-16T18:51:00.129Z,99566.05
2018-03-16T18:53:27.673Z,99566.16
2018-03-16T18:55:55.144Z,99561.62
2018-03-16T18:58:22.603Z,99563.28
2018-03-16T19:00:50.064Z,99570.53
2018-03-16T19:03:17.615Z,99569.55
2018-03-16T19:05:45.131Z,99571.27
2018-03-16T19:08:12.617Z,99572.27
2018-03-16T19:10:40.078Z,99570.14
2018-03-16T19:13:07.525Z,99582.14
2018-03-16T19:15:35.020Z,99578.65
2018-03-16T19:18:02.460Z,99576.87
2018-03-16T19:20:29.992Z,99577.62
2018-03-16T19:22:57.553Z,99579.40
2018-03-16T19:25:25.072Z,99580.09
2018-03-16T19:27:52.554Z,99586.84
2018-03-16T19:30:20.061Z,99583.69
2018-03-16T19:32:47.587Z,99585.49
2018-03-16T19:35:15.933Z,99584.93
2018-03-16T19:37:43.416Z,99586.90
2018-03-16T19:40:10.918Z,99594.53
2018-03-16T19:42:38.474Z,99592.02
2018-03-16T19:45:06.045Z,99599.22
2018-03-16T19:47:33.646Z,99598.75
2018-03-16T19:50:01.177Z,99597.18
2018-03-16T19:52:28.691Z,99599.55
2018-03-16T19:55:01.125Z,99600.80
2018-03-16T19:57:28.627Z,99608.23
2018-03-16T19:59:56.953Z,99611.09
2018-03-16T20:02:24.467Z,99613.01
2018-03-16T20:04:51.955Z,99610.63
2018-03-16T20:07:19.492Z,99617.45
2018-03-16T20:09:47.019Z,99610.98
2018-03-16T20:12:14.496Z,99624.30
2018-03-16T20:14:42.007Z,99618.97
2018-03-16T20:17:09.908Z,99621.63
2018-03-16T20:19:37.330Z,99622.22
2018-03-16T20:22:04.842Z,99624.00
2018-03-16T20:24:32.416Z,99622.11
2018-03-16T20:27:00.018Z,99620.41
2018-03-16T20:29:28.951Z,99618.09
2018-03-16T20:31:59.164Z,99625.14
2018-03-16T20:34:26.741Z,99625.22
2018-03-16T20:36:54.294Z,99629.48
2018-03-16T20:39:21.828Z,99632.45
2018-03-16T20:41:49.362Z,99625.22
2018-03-16T20:44:16.908Z,99635.17
2018-03-16T20:46:44.605Z,99624.84
2018-03-16T20:49:12.127Z,99635.46
2018-03-16T20:51:39.663Z,99637.90
2018-03-16T20:54:07.162Z,99636.97
2018-03-16T20:56:34.706Z,99645.15
2018-03-16T20:59:02.303Z,99650.72
2018-03-16T21:01:29.762Z,99649.41
2018-03-16T21:03:57.298Z,99648.11
2018-03-16T21:06:24.872Z,99649.77
2018-03-16T21:08:52.402Z,99656.46
2018-03-16T21:11:19.966Z,99657.19
2018-03-16T21:13:47.435Z,99660.64
2018-03-16T21:16:14.973Z,99666.03
2018-03-16T21:18:42.452Z,99663.19
2018-03-16T21:21:10.689Z,99659.04
2018-03-16T21:23:38.187Z,99661.77
2018-03-16T21:26:05.669Z,99656.89
2018-03-16T21:28:33.186Z,99659.33
2018-03-16T21:31:00.693Z,99668.05
2018-03-16T21:33:28.208Z,99667.73
2018-03-16T21:35:55.693Z,99672.02
2018-03-16T21:38:23.158Z,99674.80
2018-03-16T21:40:50.674Z,99673.50
2018-03-16T21:43:18.173Z,99681.34
2018-03-16T21:45:45.701Z,99680.50
2018-03-16T21:48:13.205Z,99681.45
2018-03-16T21:50:40.693Z,99677.60
2018-03-16T21:53:08.130Z,99678.96
2018-03-16T21:55:35.781Z,99678.84
2018-03-16T21:58:03.213Z,99687.31
2018-03-16T22:00:30.749Z,99674.98
2018-03-16T22:02:58.351Z,99669.16
2018-03-16T22:05:25.787Z,99669.24
2018-03-16T22:07:53.292Z,99677.42
2018-03-16T22:10:20.829Z,99675.39
2018-03-16T22:12:48.286Z,99679.06
2018-03-16T22:15:15.865Z,99683.03
2018-03-16T22:17:43.299Z,99687.55
2018-03-16T22:20:10.778Z,99692.62
2018-03-16T22:22:38.239Z,99687.39
2018-03-16T22:25:05.737Z,99693.42
2018-03-16T22:27:33.557Z,99684.30
2018-03-16T22:30:00.994Z,99682.89
2018-03-16T22:32:28.828Z,99687.38
2018-03-16T22:34:56.290Z,99677.61
2018-03-16T22:37:23.948Z,99681.20
2018-03-16T22:39:51.454Z,99675.87
2018-03-16T22:42:18.995Z,99675.87
2018-03-16T22:44:46.462Z,99682.71
2018-03-16T22:47:13.909Z,99684.12
2018-03-16T22:49:41.428Z,99675.16
2018-03-16T22:52:08.886Z,99671.59
2018-03-16T22:54:36.355Z,99683.17
2018-03-16T22:57:03.782Z,99687.08
2018-03-16T22:59:31.267Z,99691.64
2018-03-16T23:01:58.748Z,99686.95
2018-03-16T23:04:26.229Z,99687.80
2018-03-16T23:06:53.658Z,99684.64
2018-03-16T23:09:21.184Z,99692.33
2018-03-16T23:11:48.632Z,99690.66
2018-03-16T23:14:16.144Z,99692.33
2018-03-16T23:16:43.620Z,99688.55
2018-03-16T23:19:11.085Z,99688.33
2018-03-16T23:21:38.620Z,99689.37
2018-03-16T23:24:06.190Z,99689.56
2018-03-16T23:26:33.680Z,99684.48
2018-03-16T23:29:01.161Z,99679.21
2018-03-16T23:31:28.640Z,99681.64
2018-03-16T23:33:56.148Z,99683.82
2018-03-16T23:36:23.619Z,99682.34
2018-03-16T23:38:51.106Z,99685.36
2018-03-16T23:41:18.562Z,99687.20
2018-03-16T23:43:46.030Z,99692.10
2018-03-16T23:46:13.560Z,99681.56
2018-03-16T23:48:41.022Z,99682.33
2018-03-16T23:51:08.485Z,99685.34
2018-03-16T23:53:35.963Z,99684.49
2018-03-16T23:56:03.436Z,99676.02
2018-03-16T23:58:30.892Z,99677.73
